Aérodrome :
LOGIN :

S'inscrire | Disclaimer

   EN    FR    IT 

 










Légende :    VFR   VFR Marginal   IFR   IFR Intensif   IFR Très Intensif
Visi : 
Plafond : 
>= 8 km
>= 3000ft
5 à 8 km
1000 à 3000 ft
1500m à 5 km
500 à 1000 ft
800 à 1500m
200 à 500 ft
< 800m
< 200 ft
Symboles :   Orages  Brouillard  Fortes neiges  Fortes précipitations  Vent > 20 kt
SIGMETs :   Divers  Orages  Givrage  Turbulence  Onde Orograph.  Cendres Volcan.







- Altitude de l'aérodrome : 297 ft
- Code IATA : UIP
- Voir les cartes d'approche


LFRQ - Quimper Pluguffan

DERNIER METAR :
  • 211530Z AUTO 36006KT 330V030 9999 BKN036 23/17 Q1020 NOSIG

METARs EXPIRÉS :
  • 211500Z AUTO 34007KT 310V030 9999 OVC036 23/17 Q1020 NOSIG
  • 211430Z AUTO 35005KT 300V010 9999 OVC033 23/17 Q1020 NOSIG
  • 211400Z AUTO 31005KT 260V350 9999 FEW029 OVC035 23/17 Q1021 TEMPO 3000 -DZ BR OVC003
  • 211330Z AUTO 30006KT 270V330 9999 SCT024 OVC034 23/17 Q1021 TEMPO 3000 -DZ BR OVC003
  • 211300Z AUTO 34005KT 310V020 9999 OVC031 22/17 Q1021 TEMPO 3000 -DZ BR OVC003

TAF TAF LFRQ
Valide du 21 à 06h jusqu'au 22 à 06h UTC


210500Z 2106/2206 VRB03KT 9999 OVC005
BECMG 2108/2110 BKN010 BKN030
BECMG 2110/2112 BKN020
TEMPO 2115/2119 32008KT
PROB40
TEMPO 2203/2206 1000 BR
Pas de NOTAMs connus pour ce terrain.



MET'MAP, la Météo Aéronautique d'un coup d'oeil ! - Copyright ORBIFLY Décembre 2007 - Disclaimer

ORBIFLY MET'MAP TEAM :

Programmation & Développement : Alexandra Zaïnal
Conception & Développement : Baudouin d'Aumeries
Co-Programmation & Développement : Marc-Olivier Méhu
Soutien technique & logistique : Manuel Goepfert

Contact : metmap@orbifly.com




SOURCES & CREDITS :

   NOAA